Gordon V.sr. — WDB8505 — position and weather

sailwx.info

Track history (hours):
 
Tides and Currents Weather Stations Pressure Air Temp Water Temp Dewpoint Dewpoint Depression Visibility Wind Speed Wind Dir Waves Ship Positions

Gordon V.sr.

Owner: B&G TOWING L.L.C., Lafitte, LA. More information available from US FCC via Universal Licensing System and Coast Guard Vessel Documentation Center.

Last reported at 2014-Oct-31 18:11 UTC. Time now 2014-Nov-01 05:29 UTC.
Position N 29°57' W 090°08'.

MMSI: 365910942.

Date/timePositionNaut miles runAvg speedWind from/ knotsBaromVisibWave heightAir tempDewpointWater temp
2014-Oct-31 18:11N 29°57' W 090°08'3 3.9
2014-Oct-31 17:29N 29°55' W 090°06'4 4.2
2014-Oct-31 16:33N 29°57' W 090°03'1 1.2
2014-Oct-31 15:33N 29°58' W 090°02'2 1.8
2014-Oct-31 14:32N 29°60' W 090°01'0 0.0
2014-Oct-31 13:33N 29°60' W 090°01'0 0.0
2014-Oct-31 12:32N 29°60' W 090°01'0 0.0
2014-Oct-31 11:33N 29°60' W 090°01'0 0.0
2014-Oct-31 10:32N 29°60' W 090°01'0 0.0
2014-Oct-31 09:32N 29°60' W 090°01'0 0.0
2014-Oct-31 08:32N 29°60' W 090°01'6 4.9
2014-Oct-31 07:23N 30°01' W 089°54'  
2014-Oct-28 20:33N 29°58' W 090°02'1 0.9
2014-Oct-28 19:32N 29°57' W 090°01'0 0.0
2014-Oct-28 18:31N 29°57' W 090°01'0 0.0
2014-Oct-28 17:29N 29°57' W 090°01'0 0.0
2014-Oct-28 15:28N 29°57' W 090°01'0 0.0
2014-Oct-28 12:32N 29°57' W 090°01'0 0.0
2014-Oct-28 11:33N 29°57' W 090°01'0 0.0
2014-Oct-28 10:27N 29°57' W 090°01'0 0.0
2014-Oct-28 09:19N 29°57' W 090°01'0 0.0
2014-Oct-28 08:33N 29°57' W 090°01'0 0.0
2014-Oct-28 07:33N 29°57' W 090°01'0 0.0
2014-Oct-28 06:31N 29°57' W 090°01'0 0.0
2014-Oct-28 05:33N 29°57' W 090°01'0 0.0
2014-Oct-28 04:33N 29°57' W 090°01'0 0.0
2014-Oct-28 03:33N 29°57' W 090°01'0 0.5
2014-Oct-28 02:33N 29°57' W 090°02'1 0.1
2014-Oct-27 13:33N 29°58' W 090°02'1 0.5
2014-Oct-27 12:25N 29°59' W 090°01'0 0.0
2014-Oct-27 11:25N 29°59' W 090°01'0 0.0
2014-Oct-27 10:33N 29°59' W 090°01'1 1.0
2014-Oct-27 09:27N 29°60' W 090°01'0 0.0
2014-Oct-27 08:33N 29°60' W 090°01'0 0.0
2014-Oct-27 07:33N 29°60' W 090°01'0 0.0
2014-Oct-27 06:31N 29°60' W 090°01'0 0.0
2014-Oct-27 05:30N 29°60' W 090°01'0 0.0
2014-Oct-27 04:31N 29°60' W 090°01'0 0.0
2014-Oct-27 03:32N 29°60' W 090°01'0 0.0
2014-Oct-27 02:33N 29°60' W 090°01'0 0.0
2014-Oct-27 01:32N 29°60' W 090°01'0 0.0
2014-Oct-27 00:31N 29°60' W 090°01'0 0.0
2014-Oct-26 23:32N 29°60' W 090°01'0 0.0
2014-Oct-26 22:32N 29°60' W 090°01'0 0.0
2014-Oct-26 21:30N 29°60' W 090°01'0 0.0
2014-Oct-26 20:33N 29°60' W 090°01'0 0.0
2014-Oct-26 19:33N 29°60' W 090°01'0 0.0
2014-Oct-26 18:31N 29°60' W 090°01'0 0.0
2014-Oct-26 17:25N 29°60' W 090°01'  
2014-Oct-23 17:07N 30°00' W 089°56'4 6.8
2014-Oct-23 16:31N 29°60' W 090°01'2 2.3
2014-Oct-23 15:32N 29°58' W 090°02'0 0.5
2014-Oct-23 14:33N 29°57' W 090°01'0 0.0
2014-Oct-23 13:33N 29°57' W 090°01'0 0.0
2014-Oct-23 12:34N 29°57' W 090°01'0 0.0
2014-Oct-23 11:33N 29°57' W 090°01'0 0.0
2014-Oct-23 10:30N 29°57' W 090°01'3 0.2
2014-Oct-22 20:30N 29°55' W 090°04'3 2.5
2014-Oct-22 19:07N 29°57' W 090°01'0 0.0
2014-Oct-22 18:29N 29°57' W 090°01'0 0.0
2014-Oct-22 17:29N 29°57' W 090°01'  
Track history (hours):
 
Tides and Currents Weather Stations Pressure Air Temp Water Temp Dewpoint Dewpoint Depression Visibility Wind Speed Wind Dir Waves Ship Positions

Gordon V.sr.

Owner: B&G TOWING L.L.C., Lafitte, LA. More information available from US FCC via Universal Licensing System and Coast Guard Vessel Documentation Center.

Last reported at 2014-Oct-31 18:11 UTC. Time now 2014-Nov-01 05:29 UTC.
Position N 29°57' W 090°08'.

MMSI: 365910942.

Date/timePositionNaut miles runAvg speedWind from/ knotsBaromVisibWave heightAir tempDewpointWater temp
2014-Oct-31 18:11N 29°57' W 090°08'3 3.9
2014-Oct-31 17:29N 29°55' W 090°06'4 4.2
2014-Oct-31 16:33N 29°57' W 090°03'1 1.2
2014-Oct-31 15:33N 29°58' W 090°02'2 1.8
2014-Oct-31 14:32N 29°60' W 090°01'0 0.0
2014-Oct-31 13:33N 29°60' W 090°01'0 0.0
2014-Oct-31 12:32N 29°60' W 090°01'0 0.0
2014-Oct-31 11:33N 29°60' W 090°01'0 0.0
2014-Oct-31 10:32N 29°60' W 090°01'0 0.0
2014-Oct-31 09:32N 29°60' W 090°01'0 0.0
2014-Oct-31 08:32N 29°60' W 090°01'6 4.9
2014-Oct-31 07:23N 30°01' W 089°54'  
2014-Oct-28 20:33N 29°58' W 090°02'1 0.9
2014-Oct-28 19:32N 29°57' W 090°01'0 0.0
2014-Oct-28 18:31N 29°57' W 090°01'0 0.0
2014-Oct-28 17:29N 29°57' W 090°01'0 0.0
2014-Oct-28 15:28N 29°57' W 090°01'0 0.0
2014-Oct-28 12:32N 29°57' W 090°01'0 0.0
2014-Oct-28 11:33N 29°57' W 090°01'0 0.0
2014-Oct-28 10:27N 29°57' W 090°01'0 0.0
2014-Oct-28 09:19N 29°57' W 090°01'0 0.0
2014-Oct-28 08:33N 29°57' W 090°01'0 0.0
2014-Oct-28 07:33N 29°57' W 090°01'0 0.0
2014-Oct-28 06:31N 29°57' W 090°01'0 0.0
2014-Oct-28 05:33N 29°57' W 090°01'0 0.0
2014-Oct-28 04:33N 29°57' W 090°01'0 0.0
2014-Oct-28 03:33N 29°57' W 090°01'0 0.5
2014-Oct-28 02:33N 29°57' W 090°02'1 0.1
2014-Oct-27 13:33N 29°58' W 090°02'1 0.5
2014-Oct-27 12:25N 29°59' W 090°01'0 0.0
2014-Oct-27 11:25N 29°59' W 090°01'0 0.0
2014-Oct-27 10:33N 29°59' W 090°01'1 1.0
2014-Oct-27 09:27N 29°60' W 090°01'0 0.0
2014-Oct-27 08:33N 29°60' W 090°01'0 0.0
2014-Oct-27 07:33N 29°60' W 090°01'0 0.0
2014-Oct-27 06:31N 29°60' W 090°01'0 0.0
2014-Oct-27 05:30N 29°60' W 090°01'0 0.0
2014-Oct-27 04:31N 29°60' W 090°01'0 0.0
2014-Oct-27 03:32N 29°60' W 090°01'0 0.0
2014-Oct-27 02:33N 29°60' W 090°01'0 0.0
2014-Oct-27 01:32N 29°60' W 090°01'0 0.0
2014-Oct-27 00:31N 29°60' W 090°01'0 0.0
2014-Oct-26 23:32N 29°60' W 090°01'0 0.0
2014-Oct-26 22:32N 29°60' W 090°01'0 0.0
2014-Oct-26 21:30N 29°60' W 090°01'0 0.0
2014-Oct-26 20:33N 29°60' W 090°01'0 0.0
2014-Oct-26 19:33N 29°60' W 090°01'0 0.0
2014-Oct-26 18:31N 29°60' W 090°01'0 0.0
2014-Oct-26 17:25N 29°60' W 090°01'  
2014-Oct-23 17:07N 30°00' W 089°56'4 6.8
2014-Oct-23 16:31N 29°60' W 090°01'2 2.3
2014-Oct-23 15:32N 29°58' W 090°02'0 0.5
2014-Oct-23 14:33N 29°57' W 090°01'0 0.0
2014-Oct-23 13:33N 29°57' W 090°01'0 0.0
2014-Oct-23 12:34N 29°57' W 090°01'0 0.0
2014-Oct-23 11:33N 29°57' W 090°01'0 0.0
2014-Oct-23 10:30N 29°57' W 090°01'3 0.2
2014-Oct-22 20:30N 29°55' W 090°04'3 2.5
2014-Oct-22 19:07N 29°57' W 090°01'0 0.0
2014-Oct-22 18:29N 29°57' W 090°01'0 0.0
2014-Oct-22 17:29N 29°57' W 090°01'  

Dump ship's entire track history